Latest Weather Observations for Mount Hotham

IDV60801

Issued at 12:02 pm EST Tuesday 21 September 2021 (issued every 10 minutes, with the page automatically refreshed every 10 minutes)

About weather observations | Map of weather stations | Latest weather observations for VIC | Other Formats
Station Details ID: 083085 Name: MOUNT HOTHAM Lat: -36.98 Lon: 147.13 Height: 1849.0 m
Data from the previous 72 hours. | See also: Recent months at Mount Hotham
Date/Time
EST
Temp
°C
App
Temp
°C
Dew
Point
°C
Rel
Hum
%
Delta-T
°C
Wind Press
QNH
hPa
Press
MSL
hPa
Rain since
9am
mm
Dir  Spd
km/h
Gust
km/h
Spd
kts
Gust
kts
21/12:00pm -3.1 -12.5 -3.2 99 -0.1 S 37 50 20 27 - - 0.0
21/11:35am -3.4 -14.6 -3.5 99 -0.1 S 46 65 25 35 - - 0.0
21/11:30am -3.2 -14.0 -3.3 99 -0.1 S 44 61 24 33 - - 0.0
21/11:00am -3.5 -15.5 -3.6 99 -0.1 S 50 63 27 34 - - 0.0
21/10:47am -3.8 -17.5 -3.9 99 -0.1 S 59 78 32 42 - - 0.0
21/10:30am -4.0 -18.5 -4.1 99 -0.1 S 63 76 34 41 - - 0.0
21/10:04am -3.9 -17.2 -4.0 99 -0.1 S 57 87 31 47 - - 0.0
21/10:00am -3.9 -17.0 -4.0 99 -0.1 S 56 70 30 38 - - 0.0
21/09:30am -4.2 -16.6 -4.3 99 -0.2 S 52 70 28 38 - - 0.0
21/09:22am -4.3 -16.7 -4.4 99 -0.2 S 52 70 28 38 - - 0.0
21/09:00am -4.2 -14.9 -4.3 99 -0.2 S 43 50 23 27 - - 4.0
21/08:30am -4.6 -15.3 -4.7 99 -0.2 S 43 52 23 28 - - 4.0
21/08:06am -4.8 -13.1 -4.9 99 -0.2 S 30 50 16 27 - - 4.0
21/08:00am -4.9 -13.2 -5.0 99 -0.2 SSE 30 39 16 21 - - 4.0
21/07:30am -5.3 -13.3 -5.4 99 -0.2 S 28 37 15 20 - - 4.0
21/07:00am -5.5 -14.4 -5.6 99 -0.2 S 33 41 18 22 - - 4.0
21/06:30am -5.6 -13.6 -5.7 99 -0.2 S 28 43 15 23 - - 4.0
21/06:00am -5.3 -11.7 -5.4 99 -0.2 S 20 28 11 15 - - 4.0
21/05:30am -5.3 -11.7 -5.4 99 -0.2 S 20 28 11 15 - - 4.0
21/05:00am -5.5 -12.0 -5.6 99 -0.2 S 20 32 11 17 - - 4.0
21/04:30am -5.6 -10.8 -5.7 99 -0.2 S 13 19 7 10 - - 4.0
21/04:00am -5.9 -11.1 -6.0 99 -0.2 S 13 19 7 10 - - 4.0
21/03:30am -6.2 -11.4 -6.3 99 -0.2 SSW 13 17 7 9 - - 4.0
21/03:00am -6.5 -11.4 -6.6 99 -0.2 SSW 11 15 6 8 - - 4.0
21/02:30am -6.6 -11.5 -6.7 99 -0.2 S 11 15 6 8 - - 4.0
21/02:00am -6.4 -11.2 -6.5 99 -0.2 S 11 17 6 9 - - 4.0
21/01:30am -6.3 -11.1 -6.4 99 -0.2 S 11 17 6 9 - - 4.0
21/01:00am -6.3 -11.9 -6.4 99 -0.2 S 15 17 8 9 - - 4.0
21/12:30am -5.9 -10.7 -6.0 99 -0.2 S 11 17 6 9 - - 4.0
21/12:00am -6.0 -10.4 -6.1 99 -0.2 SW 9 17 5 9 - - 4.0
 
Date/Time
EST
Temp
°C
App
Temp
°C
Dew
Point
°C
Rel
Hum
%
Delta-T
°C
Wind Press
QNH
hPa
Press
MSL
hPa
Rain since
9am
mm
Dir  Spd
km/h
Gust
km/h
Spd
kts
Gust
kts
20/11:30pm -6.0 -10.4 -6.1 99 -0.2 SW 9 17 5 9 - - 4.0
20/11:00pm -6.1 -10.2 -6.2 99 -0.2 SW 7 11 4 6 - - 4.0
20/10:30pm -5.8 -9.8 -5.9 99 -0.2 WSW 7 11 4 6 - - 4.0
20/10:00pm -6.0 -10.0 -6.1 99 -0.2 W 7 11 4 6 - - 4.0
20/09:30pm -5.7 -9.7 -5.8 99 -0.2 WNW 7 13 4 7 - - 4.0
20/09:00pm -5.5 -9.5 -5.6 99 -0.2 W 7 9 4 5 - - 4.0
20/08:30pm -5.2 -9.0 -5.3 99 -0.2 WSW 6 11 3 6 - - 4.0
20/08:00pm -5.0 -9.7 -5.1 99 -0.2 WNW 11 17 6 9 - - 4.0
20/07:30pm -4.6 -9.6 -4.7 99 -0.2 WNW 13 17 7 9 - - 4.0
20/07:00pm -4.5 -9.9 -4.6 99 -0.2 WNW 15 26 8 14 - - 4.0
20/06:30pm -4.3 -9.7 -4.4 99 -0.2 NW 15 26 8 14 - - 4.0
20/06:00pm -4.0 -10.1 -4.1 99 -0.1 WNW 19 28 10 15 - - 4.0
20/05:30pm -3.8 -11.6 -3.9 99 -0.1 WNW 28 43 15 23 - - 4.0
20/05:18pm -3.6 -12.3 -3.7 99 -0.1 W 33 50 18 27 - - 4.0
20/05:13pm -3.4 -12.1 -3.5 99 -0.1 WNW 33 50 18 27 - - 4.0
20/05:00pm -3.2 -13.4 -3.3 99 -0.1 NW 41 61 22 33 - - 4.0
20/04:30pm -2.8 -13.5 -2.9 99 -0.1 NNW 44 69 24 37 - - 4.0
20/04:22pm -2.5 -12.2 -2.6 99 -0.1 NW 39 59 21 32 - - 4.0
20/04:19pm -2.5 -11.5 -2.6 99 -0.1 NW 35 50 19 27 - - 4.0
20/04:12pm -2.7 -11.7 -2.8 99 -0.1 NW 35 59 19 32 - - 3.8
20/04:00pm -3.0 -12.0 -3.1 99 -0.1 NW 35 57 19 31 - - 3.8
20/03:30pm -2.4 -12.1 -2.5 99 -0.1 NNW 39 61 21 33 - - 3.6
20/03:00pm -2.5 -11.5 -2.6 99 -0.1 NW 35 57 19 31 - - 3.6
20/02:56pm -2.5 -11.1 -2.6 99 -0.1 NW 33 57 18 31 - - 3.6
20/02:30pm -2.6 -10.6 -2.7 99 -0.1 NW 30 43 16 23 - - 3.6
20/02:02pm -2.7 -11.1 -2.8 99 -0.1 NW 32 54 17 29 - - 3.6
20/02:00pm -2.6 -11.0 -2.7 99 -0.1 WNW 32 48 17 26 - - 3.6
20/01:52pm -2.5 -10.5 -2.6 99 -0.1 WNW 30 48 16 26 - - 3.4
20/01:30pm -3.0 -11.1 -3.1 99 -0.1 WNW 30 44 16 24 - - 3.4
20/01:04pm -3.1 -10.8 -3.2 99 -0.1 W 28 48 15 26 - - 3.4
20/01:00pm -3.2 -10.9 -3.3 99 -0.1 W 28 39 15 21 - - 3.4
20/12:38pm -2.7 -10.4 -2.7 100 0.0 W 28 50 15 27 - - 3.0
20/12:30pm -2.8 -9.0 -2.8 100 0.0 WSW 20 35 11 19 - - 2.8
20/12:00pm -1.9 -10.8 -1.9 100 0.0 NW 35 54 19 29 - - 2.8
20/11:30am -2.2 -10.8 -2.2 100 0.0 NW 33 52 18 28 - - 2.0
20/11:02am -2.2 -10.8 -2.2 100 0.0 NW 33 54 18 29 - - 2.0
20/11:00am -2.4 -11.0 -2.4 100 0.0 NW 33 48 18 26 - - 2.0
20/10:36am -2.4 -11.4 -2.4 100 0.0 WNW 35 59 19 32 - - 2.0
20/10:30am -2.5 -11.9 -2.5 100 0.0 NW 37 52 20 28 - - 2.0
20/10:08am -2.4 -12.5 -2.4 100 0.0 WNW 41 59 22 32 - - 1.8
20/10:00am -2.5 -12.6 -2.5 100 0.0 NW 41 57 22 31 - - 1.6
20/09:30am -1.7 -11.3 -1.7 100 0.0 NW 39 59 21 32 - - 0.6
20/09:00am -1.8 -13.2 -1.8 100 0.0 NW 48 72 26 39 - - 24.4
20/08:30am -1.2 -12.9 -1.2 100 0.0 NW 50 74 27 40 - - 24.0
20/08:01am -0.7 -11.5 -0.7 100 0.0 WNW 46 74 25 40 - - 23.2
20/08:00am -0.7 -11.5 -0.7 100 0.0 WNW 46 74 25 40 - - 23.2
20/07:33am -0.2 -11.3 -0.2 100 0.0 NW 48 74 26 40 - - 22.4
20/07:30am -0.1 -10.8 -0.1 100 0.0 NW 46 74 25 40 - - 22.4
20/07:00am 0.0 -10.7 0.0 100 0.0 NW 46 70 25 38 - - 21.6
20/06:30am 0.4 -11.4 0.4 100 0.0 NW 52 72 28 39 - - 20.4
20/06:28am 0.4 -11.0 0.4 100 0.0 NW 50 74 27 40 - - 20.2
20/06:00am 0.5 -13.8 0.5 100 0.0 NW 65 98 35 53 - - 19.0
20/05:30am 0.4 -12.7 0.4 100 0.0 NNW 59 104 32 56 - - 17.0
20/05:00am 0.5 -13.4 0.5 100 0.0 NNW 63 100 34 54 - - 15.6
20/04:41am 0.5 -12.2 0.5 100 0.0 NW 57 98 31 53 - - 14.6
20/04:30am 0.4 -11.0 0.4 100 0.0 NW 50 72 27 39 - - 13.8
20/04:00am 0.4 -11.0 0.4 100 0.0 NNW 50 80 27 43 - - 11.6
20/03:30am 0.4 -12.2 0.4 100 0.0 NW 56 83 30 45 - - 10.2
20/03:00am 0.6 -11.9 0.6 100 0.0 NW 56 85 30 46 - - 8.2
20/02:30am 0.6 -11.2 0.6 100 0.0 NNW 52 78 28 42 - - 5.8
20/02:00am 0.7 -9.9 0.7 100 0.0 NNW 46 69 25 37 - - 3.2
20/01:30am 0.8 -10.2 0.8 100 0.0 NNW 48 69 26 37 - - 1.4
20/01:00am 0.1 -10.0 0.1 100 0.0 NNW 43 61 23 33 - - 0.6
20/12:30am 0.6 -10.5 0.2 97 0.2 NNW 48 67 26 36 - - 0.2
20/12:00am 1.0 -10.2 -0.5 90 0.6 NNW 48 78 26 42 - - 0.2
 
Date/Time
EST
Temp
°C
App
Temp
°C
Dew
Point
°C
Rel
Hum
%
Delta-T
°C
Wind Press
QNH
hPa
Press
MSL
hPa
Rain since
9am
mm
Dir  Spd
km/h
Gust
km/h
Spd
kts
Gust
kts
19/11:30pm 1.0 -10.6 -0.8 88 0.7 NNW 50 70 27 38 - - 0.2
19/11:00pm 1.0 -9.8 -0.6 89 0.7 NNW 46 78 25 42 - - 0.2
19/10:34pm 1.0 -10.2 -0.6 89 0.7 NNW 48 67 26 36 - - 0.2
19/10:30pm 1.1 -10.5 -0.7 88 0.7 NNW 50 67 27 36 - - 0.2
19/10:00pm 1.0 -9.7 0.4 96 0.3 NNW 46 70 25 38 - - 0.2
19/09:37pm 0.5 -9.8 0.5 100 0.0 NNW 44 63 24 34 - - 0.2
19/09:30pm 0.5 -10.1 0.5 100 0.0 NNW 46 63 25 34 - - 0.2
19/09:00pm 0.5 -10.9 0.5 100 0.0 NNW 50 69 27 37 - - 0.2
19/08:30pm 0.4 -11.4 0.4 100 0.0 NNW 52 70 28 38 - - 0.2
19/08:00pm 0.2 -11.3 0.2 100 0.0 NNW 50 72 27 39 - - 0.2
19/07:30pm 0.3 -11.1 0.3 100 0.0 NNW 50 70 27 38 - - 0.2
19/07:00pm 0.1 -11.7 0.1 100 0.0 NNW 52 74 28 40 - - 0.2
19/06:30pm 0.0 -11.1 0.0 100 0.0 NNW 48 67 26 36 - - 0.2
19/06:00pm 0.0 -11.1 0.0 100 0.0 NNW 48 72 26 39 - - 0.2
19/05:30pm 0.0 -11.5 0.0 100 0.0 NNW 50 72 27 39 - - 0.2
19/05:00pm -0.1 -11.2 -0.1 100 0.0 NNW 48 69 26 37 - - 0.2
19/04:30pm -0.2 -10.6 -0.2 100 0.0 NNW 44 63 24 34 - - 0.2
19/04:00pm -0.3 -11.1 -0.3 100 0.0 NNW 46 69 25 37 - - 0.2
19/03:30pm -0.4 -10.6 -0.4 100 0.0 NNW 43 63 23 34 - - 0.2
19/03:00pm -0.7 -11.0 -0.7 100 0.0 NNW 43 63 23 34 - - 0.2
19/02:30pm -1.0 -11.5 -1.0 100 0.0 NNW 44 67 24 36 - - 0.2
19/02:00pm -1.0 -12.2 -1.0 100 0.0 NNW 48 69 26 37 - - 0.2
19/01:30pm -1.1 -12.0 -1.1 100 0.0 NNW 46 65 25 35 - - 0.2
19/01:00pm -1.4 -13.5 -1.4 100 0.0 NNW 52 72 28 39 - - 0.2
19/12:30pm -1.3 -12.2 -1.3 100 0.0 NNW 46 70 25 38 - - 0.2
19/12:01pm -1.3 -12.6 -1.3 100 0.0 NNW 48 67 26 36 - - 0.2
19/12:00pm -1.4 -13.1 -1.4 100 0.0 NNW 50 67 27 36 - - 0.2
19/11:30am -1.6 -12.9 -1.6 100 0.0 NNW 48 69 26 37 - - 0.2
19/11:00am -1.8 -13.5 -1.8 100 0.0 NNW 50 70 27 38 - - 0.2
19/10:30am -1.9 -13.6 -1.9 100 0.0 NW 50 76 27 41 - - 0.2
19/10:00am -2.1 -13.5 -2.2 99 -0.1 NNW 48 74 26 40 - - 0.2
19/09:30am -2.4 -15.0 -2.5 99 -0.1 NW 54 72 29 39 - - 0.0
19/09:00am -2.5 -15.1 -2.6 99 -0.1 NNW 54 76 29 41 - - 0.6
19/08:30am -2.6 -15.2 -2.7 99 -0.1 NW 54 80 29 43 - - 0.6
19/08:00am -2.6 -14.8 -2.7 99 -0.1 NW 52 82 28 44 - - 0.6
19/07:30am -2.7 -14.6 -2.8 99 -0.1 NW 50 76 27 41 - - 0.6
19/07:00am -2.6 -15.8 -2.7 99 -0.1 NW 57 87 31 47 - - 0.6
19/06:30am -2.5 -15.1 -2.6 99 -0.1 NW 54 80 29 43 - - 0.6
19/06:00am -2.4 -15.6 -2.5 99 -0.1 NW 57 80 31 43 - - 0.6
19/05:30am -2.5 -16.0 -2.6 99 -0.1 NW 59 82 32 44 - - 0.6
19/05:00am -2.4 -15.6 -2.5 99 -0.1 NW 57 85 31 46 - - 0.6
19/04:30am -2.4 -15.4 -2.5 99 -0.1 NW 56 85 30 46 - - 0.6
19/04:00am -2.6 -15.2 -2.7 99 -0.1 NW 54 82 29 44 - - 0.6
19/03:30am -2.5 -15.1 -2.6 99 -0.1 NNW 54 78 29 42 - - 0.6
19/03:00am -2.5 -14.0 -2.6 99 -0.1 NW 48 72 26 39 - - 0.6
19/02:30am -2.7 -14.9 -2.8 99 -0.1 NW 52 72 28 39 - - 0.6
19/02:00am -2.7 -14.9 -2.8 99 -0.1 NW 52 72 28 39 - - 0.6
19/01:37am -2.4 -14.6 -2.4 100 0.0 NW 52 72 28 39 - - 0.6
19/01:30am -2.4 -14.6 -2.4 100 0.0 NW 52 69 28 37 - - 0.6
19/01:00am -2.1 -14.3 -2.1 100 0.0 NW 52 72 28 39 - - 0.6
19/12:30am -2.1 -13.5 -2.1 100 0.0 NW 48 69 26 37 - - 0.6
19/12:00am -1.9 -11.9 -1.9 100 0.0 NW 41 61 22 33 - - 0.6
 
Date/Time
EST
Temp
°C
App
Temp
°C
Dew
Point
°C
Rel
Hum
%
Delta-T
°C
Wind Press
QNH
hPa
Press
MSL
hPa
Rain since
9am
mm
Dir  Spd
km/h
Gust
km/h
Spd
kts
Gust
kts
18/11:30pm -2.0 -12.4 -2.0 100 0.0 NW 43 65 23 35 - - 0.6
18/11:00pm -1.9 -11.6 -1.9 100 0.0 NW 39 57 21 31 - - 0.6
18/10:31pm -1.8 -11.1 -1.8 100 0.0 NW 37 56 20 30 - - 0.6
18/10:30pm -1.7 -11.3 -1.7 100 0.0 NW 39 56 21 30 - - 0.6
18/10:00pm -2.0 -11.3 -2.0 100 0.0 NW 37 57 20 31 - - 0.6
18/09:51pm -1.7 -11.3 -1.7 100 0.0 NW 39 57 21 31 - - 0.6
18/09:30pm -1.9 -11.9 -1.9 100 0.0 NW 41 52 22 28 - - 0.6
18/09:07pm -1.5 -9.8 -1.5 100 0.0 WNW 32 50 17 27 - - 0.6
18/09:00pm -1.5 -10.3 -1.5 100 0.0 WNW 35 48 19 26 - - 0.6
18/08:46pm -1.4 -10.2 -1.4 100 0.0 WNW 35 52 19 28 - - 0.4
18/08:30pm -1.6 -11.6 -1.6 100 0.0 NW 41 54 22 29 - - 0.4
18/08:00pm -2.1 -11.0 -2.1 100 0.0 WNW 35 52 19 28 - - 0.2
18/07:57pm -2.0 -10.5 -2.0 100 0.0 WNW 33 52 18 28 - - 0.0
18/07:42pm -1.5 -11.9 -1.5 100 0.0 NW 43 63 23 34 - - 0.0
18/07:35pm -1.6 -13.7 -1.6 100 0.0 NW 52 70 28 38 - - 0.0
18/07:30pm -1.6 -14.6 -1.6 100 0.0 NW 57 80 31 43 - - 0.0
18/07:27pm -1.5 -14.0 -1.5 100 0.0 NW 54 80 29 43 - - 0.0
18/07:00pm -1.5 -11.9 -1.5 100 0.0 NW 43 70 23 38 - - 0.0
18/06:49pm -1.6 -13.7 -1.6 100 0.0 NNW 52 78 28 42 - - 0.0
18/06:32pm -1.8 -11.8 -1.8 100 0.0 NW 41 59 22 32 - - 0.0
18/06:30pm -1.6 -11.6 -1.6 100 0.0 NW 41 56 22 30 - - 0.0
18/06:00pm -1.4 -11.7 -1.4 100 0.0 NW 43 74 23 40 - - 0.0
18/05:30pm -1.2 -11.5 -1.2 100 0.0 NW 43 67 23 36 - - 0.0
18/05:00pm -1.2 -11.1 -1.2 100 0.0 NNW 41 67 22 36 - - 0.0
18/04:31pm -1.3 -11.6 -1.3 100 0.0 NNW 43 61 23 33 - - 0.0
18/04:30pm -1.2 -11.5 -1.2 100 0.0 NNW 43 57 23 31 - - 0.0
18/04:00pm -1.2 -12.1 -1.2 100 0.0 NNW 46 72 25 39 - - 0.0
18/03:30pm -1.1 -9.9 -1.1 100 0.0 NW 35 61 19 33 - - 0.0
18/03:03pm -0.8 -9.9 -0.9 99 0.0 NW 37 57 20 31 - - 0.0
18/03:00pm -0.8 -9.6 -0.9 99 0.0 NW 35 50 19 27 - - 0.0
18/02:30pm -0.5 -9.6 -0.6 99 0.0 NW 37 57 20 31 - - 0.0
18/02:00pm -0.2 -9.7 -0.5 98 0.1 NNW 39 57 21 31 - - 0.0
18/01:30pm -0.4 -8.5 -0.5 99 0.0 NW 32 54 17 29 - - 0.0
18/01:13pm -0.3 -8.0 -0.4 99 0.0 NW 30 50 16 27 - - 0.0
18/01:00pm -0.1 -7.8 -0.1 100 0.0 NW 30 46 16 25 - - 0.0
18/12:30pm -0.3 -8.4 -0.3 100 0.0 NW 32 50 17 27 - - 0.0

Other formats

Comma delimited format used in spreadsheet applications
http://www.bom.gov.au/fwo/IDV60801/IDV60801.94906.axf

JavaScript Object Notation format (JSON) in row-major order
http://www.bom.gov.au/fwo/IDV60801/IDV60801.94906.json

Data quality

Most of these data are generated automatically and are frequently updated. Quality checks on data are not normally performed. It is possible for incorrect values to appear. Refer to information at About Latest Weather Observations and please check the disclaimer before using these data.